createdAt,value
2023-01-13T00:00:34.922Z,29.80
2023-01-13T00:01:37.925Z,28.30
2023-01-13T00:02:40.190Z,34.27
2023-01-13T00:03:43.409Z,31.60
2023-01-13T00:04:46.520Z,32.80
2023-01-13T00:05:48.810Z,34.00
2023-01-13T00:06:52.104Z,15.40
2023-01-13T00:07:54.418Z,29.10
2023-01-13T00:08:57.286Z,27.60
2023-01-13T00:10:00.605Z,31.90
2023-01-13T00:11:02.911Z,32.00
2023-01-13T00:12:06.547Z,22.10
2023-01-13T00:13:09.017Z,27.00
2023-01-13T00:14:11.226Z,31.70
2023-01-13T00:15:14.498Z,27.60
2023-01-13T00:16:18.483Z,26.80
2023-01-13T00:17:22.534Z,36.50
2023-01-13T00:18:25.335Z,37.00
2023-01-13T00:19:27.939Z,37.80
2023-01-13T00:20:30.084Z,29.70
2023-01-13T00:21:32.213Z,37.30
2023-01-13T00:22:35.531Z,38.70
2023-01-13T00:23:39.133Z,33.80
2023-01-13T00:24:41.570Z,34.50
2023-01-13T00:25:44.861Z,32.30
2023-01-13T00:26:47.799Z,28.50
2023-01-13T00:27:50.040Z,38.10
2023-01-13T00:28:58.385Z,32.50
2023-01-13T00:30:01.028Z,34.30
2023-01-13T00:31:09.670Z,33.60
2023-01-13T00:32:11.898Z,26.80
2023-01-13T00:33:14.445Z,29.30
2023-01-13T00:34:17.888Z,34.90
2023-01-13T00:35:20.089Z,30.40
2023-01-13T00:36:22.547Z,34.00
2023-01-13T00:37:26.667Z,33.20
2023-01-13T00:38:31.477Z,24.80
2023-01-13T00:39:33.846Z,33.90
2023-01-13T00:40:37.322Z,12.27
2023-01-13T00:41:57.759Z,20.30
2023-01-13T00:43:18.835Z,30.10
2023-01-13T00:44:20.935Z,32.60
2023-01-13T00:45:23.795Z,32.10
2023-01-13T00:46:26.137Z,31.00
2023-01-13T00:47:28.274Z,35.00
2023-01-13T00:48:32.168Z,29.70
2023-01-13T00:49:34.311Z,30.00
2023-01-13T00:50:36.884Z,36.20
2023-01-13T00:51:39.144Z,35.70
2023-01-13T00:52:42.377Z,28.90
2023-01-13T00:53:47.656Z,32.70
2023-01-13T00:54:50.066Z,31.40
2023-01-13T00:57:12.612Z,35.50
2023-01-13T00:58:14.856Z,38.00
2023-01-13T00:59:17.298Z,30.40
2023-01-13T01:00:20.780Z,29.50
2023-01-13T01:01:25.383Z,29.60
2023-01-13T01:02:27.772Z,17.70
2023-01-13T01:03:30.490Z,28.00
2023-01-13T01:04:33.475Z,26.70
2023-01-13T01:05:35.608Z,30.91
2023-01-13T01:06:38.287Z,32.60
2023-01-13T01:07:40.470Z,32.70
2023-01-13T01:08:43.824Z,27.80
2023-01-13T01:09:45.956Z,33.50
2023-01-13T01:10:48.517Z,27.40
2023-01-13T01:11:50.607Z,28.90
2023-01-13T01:12:53.781Z,28.00
2023-01-13T01:13:58.764Z,26.40
2023-01-13T01:15:01.793Z,25.50
2023-01-13T01:16:06.908Z,26.40
2023-01-13T01:17:09.235Z,34.90
2023-01-13T01:18:11.894Z,29.50
2023-01-13T01:19:14.245Z,25.20
2023-01-13T01:20:16.874Z,28.60
2023-01-13T01:21:21.134Z,30.70
2023-01-13T01:22:23.203Z,32.00
2023-01-13T01:23:25.252Z,27.90
2023-01-13T01:24:27.422Z,26.50
2023-01-13T01:25:29.836Z,27.70
2023-01-13T01:26:32.794Z,27.70
2023-01-13T01:27:35.073Z,28.70
2023-01-13T01:28:39.757Z,30.00
2023-01-13T01:29:41.941Z,26.90
2023-01-13T01:30:44.278Z,26.10
2023-01-13T01:31:46.748Z,21.70
2023-01-13T01:32:49.075Z,35.70
2023-01-13T01:33:52.937Z,23.90
2023-01-13T01:34:55.154Z,27.80
2023-01-13T01:35:57.287Z,27.90
2023-01-13T01:37:00.056Z,27.00
2023-01-13T01:38:02.302Z,24.70
2023-01-13T01:39:04.928Z,25.40
2023-01-13T01:40:09.269Z,30.90
2023-01-13T01:41:17.921Z,25.40
2023-01-13T01:42:41.088Z,31.70
2023-01-13T01:44:03.011Z,29.80
2023-01-13T01:45:21.082Z,24.60
2023-01-13T01:46:24.463Z,28.50
2023-01-13T01:47:29.631Z,28.70
2023-01-13T01:48:38.163Z,24.40
2023-01-13T01:49:42.198Z,32.40
2023-01-13T01:50:44.893Z,21.30
2023-01-13T01:51:53.848Z,26.80
2023-01-13T01:52:59.698Z,26.80
2023-01-13T01:54:04.611Z,24.30
2023-01-13T01:55:16.758Z,30.90
2023-01-13T01:56:20.559Z,26.80
2023-01-13T01:57:32.371Z,32.70
2023-01-13T01:58:41.816Z,25.10
2023-01-13T01:59:45.019Z,30.40
2023-01-13T02:00:48.524Z,30.30
2023-01-13T02:01:51.347Z,26.30
2023-01-13T02:02:54.704Z,25.91
2023-01-13T02:04:00.545Z,28.80
2023-01-13T02:05:03.013Z,32.10
2023-01-13T02:06:06.432Z,29.60
2023-01-13T02:07:10.379Z,24.10
2023-01-13T02:08:14.414Z,31.70
2023-01-13T02:09:17.235Z,31.30
2023-01-13T02:10:22.984Z,27.27
2023-01-13T02:11:50.135Z,31.30
2023-01-13T02:12:53.743Z,38.00
2023-01-13T02:13:56.240Z,36.30
2023-01-13T02:15:17.188Z,20.60
2023-01-13T02:16:24.100Z,29.50
2023-01-13T02:17:43.063Z,35.10
2023-01-13T02:19:00.591Z,30.40
2023-01-13T02:20:29.542Z,29.30
2023-01-13T04:24:28.395Z,33.60
2023-01-13T04:25:31.084Z,24.60
2023-01-13T04:26:33.754Z,29.70
2023-01-13T04:27:36.056Z,30.50
2023-01-13T04:28:39.976Z,30.50
2023-01-13T04:29:42.311Z,30.20
2023-01-13T04:30:46.128Z,31.10
2023-01-13T04:31:48.537Z,23.80
2023-01-13T04:32:50.594Z,25.60
2023-01-13T04:33:52.832Z,23.50
2023-01-13T04:34:57.026Z,27.90
2023-01-13T04:35:59.244Z,27.90
2023-01-13T04:37:01.546Z,31.20
2023-01-13T04:38:06.691Z,37.10
2023-01-13T04:39:08.720Z,37.70
2023-01-13T04:40:12.007Z,36.30
2023-01-13T04:41:14.070Z,29.18
2023-01-13T04:42:16.188Z,27.40
2023-01-13T04:43:18.375Z,28.44
2023-01-13T04:44:20.499Z,28.10
2023-01-13T04:45:23.246Z,28.70
2023-01-13T04:46:26.787Z,36.36
2023-01-13T04:47:30.245Z,31.00
2023-01-13T04:48:32.484Z,27.90
2023-01-13T04:49:34.551Z,34.11
2023-01-13T04:50:36.947Z,19.90
2023-01-13T04:51:38.951Z,27.20
2023-01-13T04:52:40.889Z,35.11
2023-01-13T04:53:42.837Z,39.33
2023-01-13T04:54:45.391Z,38.50
2023-01-13T04:55:50.199Z,32.20
2023-01-13T04:56:52.576Z,36.60
2023-01-13T04:57:55.256Z,37.20
2023-01-13T04:58:58.655Z,44.10
2023-01-13T05:00:01.786Z,38.60
2023-01-13T05:01:05.137Z,33.70
2023-01-13T05:02:08.911Z,33.40
2023-01-13T05:03:11.440Z,22.20
2023-01-13T05:04:14.963Z,37.20
2023-01-13T05:05:18.343Z,12.00
2023-01-13T05:06:20.667Z,28.10
2023-01-13T05:07:22.841Z,36.67
2023-01-13T05:08:24.959Z,31.40
2023-01-13T05:09:26.843Z,33.33
2023-01-13T05:10:29.591Z,26.10
2023-01-13T05:11:50.380Z,32.36
2023-01-13T05:13:11.080Z,34.80
2023-01-13T05:14:31.577Z,35.20
2023-01-13T05:15:52.964Z,36.90
2023-01-13T05:17:02.637Z,39.80
2023-01-13T05:18:05.856Z,41.10
2023-01-13T05:19:08.054Z,42.40
2023-01-13T05:20:12.038Z,46.90
2023-01-13T05:21:32.940Z,34.09
2023-01-13T05:22:54.120Z,30.90
2023-01-13T05:24:14.651Z,32.80
2023-01-13T05:25:24.702Z,40.60
2023-01-13T05:26:27.106Z,36.40
2023-01-13T05:27:29.838Z,42.70
2023-01-13T05:28:34.167Z,40.10
2023-01-13T05:29:41.168Z,38.40
2023-01-13T05:30:46.197Z,38.10
2023-01-13T05:31:48.283Z,39.80
2023-01-13T05:32:51.446Z,35.00
2023-01-13T05:33:53.848Z,40.10
2023-01-13T05:34:56.315Z,32.50
2023-01-13T05:36:01.733Z,40.10
2023-01-13T05:37:05.933Z,34.90
2023-01-13T05:38:09.090Z,21.60
2023-01-13T05:39:11.183Z,28.90
2023-01-13T05:40:35.151Z,32.90
2023-01-13T05:41:56.200Z,34.90
2023-01-13T05:43:20.889Z,37.90
2023-01-13T05:44:23.617Z,38.90
2023-01-13T05:45:25.927Z,46.20
2023-01-13T05:46:28.385Z,26.90
2023-01-13T05:47:32.787Z,44.80
2023-01-13T05:48:40.701Z,35.10
2023-01-13T05:49:42.879Z,27.50
2023-01-13T05:50:46.401Z,39.30
2023-01-13T05:51:49.005Z,30.20
2023-01-13T05:52:51.409Z,36.00
2023-01-13T05:53:55.598Z,35.60
2023-01-13T05:54:58.031Z,32.30
2023-01-13T05:56:02.481Z,39.90
2023-01-13T05:57:04.976Z,39.40
2023-01-13T05:58:12.131Z,45.20
2023-01-13T05:59:14.944Z,30.00
2023-01-13T06:00:18.901Z,37.00
2023-01-13T06:01:21.440Z,39.30
2023-01-13T06:02:24.190Z,27.80
2023-01-13T06:03:26.757Z,28.10
2023-01-13T06:04:29.331Z,37.60
2023-01-13T06:05:33.817Z,27.60
2023-01-13T06:06:36.560Z,36.10
2023-01-13T06:07:39.327Z,32.50
2023-01-13T06:08:41.470Z,38.00
2023-01-13T06:09:44.625Z,35.90
2023-01-13T06:10:49.514Z,35.90
2023-01-13T06:11:52.014Z,34.10
2023-01-13T08:01:37.535Z,37.40
2023-01-13T08:03:00.056Z,30.60
2023-01-13T08:04:05.786Z,54.40
2023-01-13T08:05:13.227Z,29.90
2023-01-13T08:06:16.592Z,31.60
2023-01-13T08:07:19.580Z,38.90
2023-01-13T08:08:22.713Z,39.20
2023-01-13T08:09:25.274Z,37.10
2023-01-13T08:10:27.622Z,42.40
2023-01-13T08:11:30.637Z,40.30
2023-01-13T08:12:55.915Z,43.20
2023-01-13T08:13:57.292Z,34.10
2023-01-13T08:14:59.783Z,32.20
2023-01-13T08:16:07.909Z,37.20
2023-01-13T08:17:10.353Z,36.10
2023-01-13T08:18:13.935Z,34.60
2023-01-13T08:19:15.921Z,41.00
2023-01-13T08:20:19.652Z,38.00
2023-01-13T08:21:21.802Z,46.30
2023-01-13T08:22:24.130Z,67.78
2023-01-13T08:23:26.057Z,103.70
2023-01-13T08:24:28.163Z,82.00
2023-01-13T08:25:31.628Z,67.67
2023-01-13T08:26:33.711Z,62.70
2023-01-13T08:27:35.915Z,47.40
2023-01-13T08:28:39.846Z,49.44
2023-01-13T08:29:42.451Z,41.90
2023-01-13T08:30:45.366Z,43.80
2023-01-13T08:31:47.964Z,39.10
2023-01-13T08:32:50.663Z,44.40
2023-01-13T08:33:52.804Z,33.70
2023-01-13T08:34:55.017Z,43.00
2023-01-13T08:35:58.063Z,39.00
2023-01-13T08:37:00.328Z,40.60
2023-01-13T08:38:02.991Z,37.80
2023-01-13T08:39:08.584Z,37.80
2023-01-13T08:40:19.987Z,119.60
2023-01-13T08:41:46.849Z,64.40
2023-01-13T08:42:50.273Z,128.60
2023-01-13T08:43:53.288Z,93.50
2023-01-13T08:44:57.872Z,84.36
2023-01-13T08:46:04.234Z,62.70
2023-01-13T08:47:06.353Z,53.90
2023-01-13T08:48:08.731Z,47.50
2023-01-13T08:49:12.248Z,48.50
2023-01-13T08:50:15.374Z,43.60
2023-01-13T08:51:17.624Z,48.09
2023-01-13T08:52:20.165Z,40.10
2023-01-13T08:53:22.348Z,40.70
2023-01-13T08:54:25.692Z,42.90
2023-01-13T08:55:29.004Z,26.82
2023-01-13T08:56:35.019Z,35.27
2023-01-13T08:57:36.443Z,40.00
2023-01-13T08:58:40.640Z,36.27
2023-01-13T08:59:43.474Z,41.50
2023-01-13T09:00:46.303Z,36.91
2023-01-13T09:01:49.339Z,33.30
2023-01-13T09:02:51.744Z,40.60
2023-01-13T09:03:54.884Z,19.00
2023-01-13T09:04:57.267Z,37.90
2023-01-13T09:05:59.379Z,34.90
2023-01-13T09:07:02.359Z,32.70
2023-01-13T09:08:04.635Z,45.50
2023-01-13T09:09:07.676Z,37.60
2023-01-13T09:10:11.813Z,33.90
2023-01-13T09:11:43.274Z,42.90
2023-01-13T09:13:03.894Z,31.10
2023-01-13T09:14:06.260Z,32.20
2023-01-13T09:15:09.401Z,34.90
2023-01-13T09:16:11.824Z,38.50
2023-01-13T09:17:14.336Z,32.50
2023-01-13T09:18:16.692Z,34.60
2023-01-13T09:19:19.826Z,29.40
2023-01-13T09:20:22.635Z,38.30
2023-01-13T09:21:26.125Z,27.30
2023-01-13T09:22:28.555Z,35.30
2023-01-13T09:23:31.023Z,34.80
2023-01-13T09:24:33.372Z,29.50
2023-01-13T09:25:39.149Z,31.20
2023-01-13T09:26:42.608Z,31.90
2023-01-13T09:27:44.974Z,30.10
2023-01-13T09:28:47.296Z,31.30
2023-01-13T09:29:49.887Z,28.60
2023-01-13T09:30:53.750Z,27.55
2023-01-13T09:31:57.571Z,38.00
2023-01-13T09:33:18.899Z,41.00
2023-01-13T09:34:39.871Z,35.90
2023-01-13T09:35:42.519Z,43.90
2023-01-13T09:36:45.060Z,37.60
2023-01-13T09:37:48.827Z,41.60
2023-01-13T09:38:52.138Z,49.10
2023-01-13T09:39:55.887Z,24.10
2023-01-13T09:40:58.109Z,37.70
2023-01-13T09:42:39.295Z,28.70
2023-01-13T09:45:06.779Z,29.55
2023-01-13T09:46:17.973Z,36.90
2023-01-13T09:47:40.528Z,36.90
2023-01-13T09:48:51.677Z,40.00
2023-01-13T09:50:09.574Z,18.30
2023-01-13T09:51:30.183Z,38.10
2023-01-13T09:52:32.646Z,39.40
2023-01-13T09:53:41.204Z,39.10
2023-01-13T09:54:46.160Z,30.20
2023-01-13T09:55:49.028Z,32.60
2023-01-13T09:56:52.556Z,29.55
2023-01-13T09:57:55.126Z,37.60
2023-01-13T09:58:58.054Z,42.60
2023-01-13T10:00:00.411Z,45.64
2023-01-13T10:01:24.459Z,36.00
2023-01-13T10:02:34.555Z,27.60
2023-01-13T10:03:36.756Z,38.00
2023-01-13T10:04:39.336Z,31.70
2023-01-13T10:05:45.645Z,36.00
2023-01-13T10:06:51.542Z,33.70
2023-01-13T10:08:06.705Z,29.50
2023-01-13T10:09:16.299Z,37.10
2023-01-13T10:10:23.002Z,30.10
2023-01-13T10:11:50.348Z,32.60
2023-01-13T16:16:22.045Z,38.20
2023-01-13T16:17:27.907Z,32.40
2023-01-13T16:18:30.374Z,33.40
2023-01-13T16:19:33.071Z,26.80
2023-01-13T16:20:36.048Z,33.30
2023-01-13T16:21:38.433Z,31.50
2023-01-13T16:22:40.679Z,35.30
2023-01-13T16:23:42.940Z,37.40
2023-01-13T16:24:46.544Z,29.60
2023-01-13T16:25:50.437Z,31.70
2023-01-13T16:26:52.885Z,38.80
2023-01-13T16:27:54.904Z,29.11
2023-01-13T16:28:57.768Z,42.44
2023-01-13T16:29:59.818Z,39.73
2023-01-13T16:31:05.612Z,25.60
2023-01-13T16:32:07.870Z,38.70
2023-01-13T16:33:10.873Z,30.00
2023-01-13T16:34:12.952Z,30.73
2023-01-13T16:35:16.339Z,32.00
2023-01-13T16:36:20.607Z,31.20
2023-01-13T16:37:25.885Z,37.50
2023-01-13T16:38:28.675Z,32.50
2023-01-13T16:39:30.588Z,33.30
2023-01-13T16:40:35.287Z,32.33
2023-01-13T16:41:38.276Z,34.20
2023-01-13T16:42:40.237Z,32.64
2023-01-13T16:43:43.276Z,38.56
2023-01-13T16:44:47.319Z,36.00
2023-01-13T16:45:49.885Z,29.90
2023-01-13T16:46:52.762Z,33.60
2023-01-13T16:47:55.289Z,38.30
2023-01-13T16:49:01.070Z,35.40
2023-01-13T16:50:03.652Z,28.20
2023-01-13T16:51:06.193Z,28.00
2023-01-13T16:52:10.403Z,36.70
2023-01-13T16:53:13.054Z,40.40
2023-01-13T16:54:16.136Z,29.10
2023-01-13T16:55:18.288Z,38.40
2023-01-13T16:56:28.931Z,28.33
2023-01-13T16:57:30.966Z,33.80
2023-01-13T16:58:33.560Z,38.10
2023-01-13T16:59:37.777Z,35.90
2023-01-13T17:00:42.381Z,36.80
2023-01-13T17:01:45.986Z,32.80
2023-01-13T17:02:48.680Z,39.60
2023-01-13T17:03:51.803Z,43.00
2023-01-13T17:04:54.197Z,37.70
2023-01-13T17:05:56.771Z,35.00
2023-01-13T17:07:02.639Z,44.30
2023-01-13T17:08:06.075Z,38.20
2023-01-13T17:09:11.995Z,41.50
2023-01-13T17:10:17.549Z,41.60
2023-01-13T17:11:20.334Z,37.40
2023-01-13T17:12:22.645Z,41.18
2023-01-13T17:13:24.879Z,33.00
2023-01-13T17:14:28.198Z,41.90
2023-01-13T17:15:30.826Z,42.70
2023-01-13T17:16:34.897Z,40.00
2023-01-13T17:17:37.481Z,39.60
2023-01-13T17:18:40.027Z,36.00
2023-01-13T17:19:42.261Z,44.10
2023-01-13T17:20:45.543Z,45.20
2023-01-13T17:21:50.416Z,43.80
2023-01-13T17:22:58.221Z,44.70
2023-01-13T17:23:57.199Z,33.70
2023-01-13T17:24:59.906Z,39.20
2023-01-13T17:26:02.196Z,38.55
2023-01-13T17:27:04.354Z,35.67
2023-01-13T17:28:06.958Z,37.70
2023-01-13T17:29:19.148Z,38.10
2023-01-13T17:30:21.818Z,37.30
2023-01-13T17:31:23.844Z,33.90
2023-01-13T17:32:26.141Z,40.22
2023-01-13T17:33:30.055Z,40.80
2023-01-13T17:34:32.201Z,42.70
2023-01-13T17:35:34.321Z,45.60
2023-01-13T17:36:36.592Z,35.00
2023-01-13T17:37:39.699Z,39.90
2023-01-13T17:38:43.286Z,41.20
2023-01-13T17:39:47.926Z,43.40
2023-01-13T17:40:50.912Z,38.20
2023-01-13T17:41:55.343Z,32.90
2023-01-13T17:42:57.749Z,35.20
2023-01-13T17:44:00.971Z,36.50
2023-01-13T17:45:03.807Z,27.30
2023-01-13T17:46:12.096Z,42.20
2023-01-13T17:47:14.816Z,38.60
2023-01-13T17:48:18.249Z,45.50
2023-01-13T17:49:21.861Z,34.80
2023-01-13T17:50:27.223Z,40.50
2023-01-13T17:51:29.674Z,34.40
2023-01-13T17:52:34.530Z,40.00
2023-01-13T17:53:39.499Z,41.70
2023-01-13T17:54:43.192Z,42.30
2023-01-13T18:06:18.334Z,43.90
2023-01-13T18:07:20.842Z,45.90
2023-01-13T22:02:00.356Z,45.40
2023-01-13T22:03:04.347Z,35.70
2023-01-13T22:04:12.364Z,37.60
2023-01-13T22:05:17.096Z,31.50
2023-01-13T22:06:19.626Z,44.10
2023-01-13T22:07:21.623Z,28.70
2023-01-13T22:08:25.061Z,41.70
2023-01-13T22:09:29.773Z,49.10
2023-01-13T22:10:32.218Z,43.90
2023-01-13T22:11:35.350Z,44.20
2023-01-13T22:12:38.897Z,48.73
2023-01-13T22:13:59.680Z,38.30
2023-01-13T22:15:02.721Z,44.20
2023-01-13T22:16:05.797Z,41.30
2023-01-13T22:17:07.798Z,39.45
2023-01-13T22:18:09.982Z,45.10
2023-01-13T22:19:12.096Z,34.50
2023-01-13T22:20:19.400Z,43.30
2023-01-13T22:21:19.553Z,43.70
2023-01-13T22:22:21.937Z,42.30
2023-01-13T22:23:23.934Z,47.90
2023-01-13T22:24:26.062Z,24.00
2023-01-13T22:25:28.145Z,37.44
2023-01-13T22:26:31.764Z,33.90
2023-01-13T22:27:37.995Z,43.10
2023-01-13T22:28:42.619Z,41.00
2023-01-13T22:29:46.733Z,46.10
2023-01-13T22:30:51.552Z,46.00
2023-01-13T22:31:54.210Z,33.70
2023-01-13T22:32:57.320Z,37.60
2023-01-13T22:33:59.467Z,37.80
2023-01-13T22:35:02.329Z,39.67
2023-01-13T22:36:05.859Z,41.09
2023-01-13T22:37:08.497Z,47.40
2023-01-13T22:38:12.411Z,47.20
2023-01-13T22:39:14.413Z,46.90
2023-01-13T22:40:17.235Z,43.70
2023-01-13T22:41:20.061Z,43.27
2023-01-13T22:42:21.976Z,50.40
2023-01-13T22:43:24.716Z,45.00
2023-01-13T22:44:26.922Z,40.30
2023-01-13T22:45:29.064Z,43.40
2023-01-13T22:46:30.998Z,48.33
2023-01-13T22:47:33.808Z,54.56
2023-01-13T22:48:36.969Z,54.55
2023-01-13T22:49:41.189Z,41.18
2023-01-13T22:50:43.770Z,52.10
2023-01-13T22:51:46.080Z,51.50
2023-01-13T22:52:48.119Z,47.60
2023-01-13T22:53:50.652Z,44.30
2023-01-13T22:54:52.593Z,49.20
2023-01-13T22:55:58.935Z,48.89
2023-01-13T22:57:01.119Z,50.70
2023-01-13T22:58:03.131Z,47.11
2023-01-13T22:59:09.009Z,45.67
2023-01-13T23:00:13.950Z,41.70
2023-01-13T23:01:17.398Z,38.50
2023-01-13T23:02:19.757Z,46.20
2023-01-13T23:03:23.874Z,49.44
2023-01-13T23:04:26.180Z,40.80
2023-01-13T23:05:28.503Z,42.40
2023-01-13T23:06:33.008Z,49.40
2023-01-13T23:07:35.600Z,51.10
2023-01-13T23:08:37.689Z,42.40
2023-01-13T23:09:39.744Z,43.44
2023-01-13T23:10:42.084Z,50.00
2023-01-13T23:11:47.709Z,52.60
2023-01-13T23:12:51.609Z,35.40
2023-01-13T23:13:59.156Z,48.20
2023-01-13T23:15:01.233Z,51.70
2023-01-13T23:16:08.941Z,35.90
2023-01-13T23:17:11.161Z,42.30
2023-01-13T23:18:13.272Z,49.27
2023-01-13T23:19:15.484Z,45.30
2023-01-13T23:20:18.741Z,40.67
2023-01-13T23:21:25.465Z,46.40
2023-01-13T23:22:27.538Z,54.80
2023-01-13T23:23:29.960Z,49.30
2023-01-13T23:24:32.143Z,48.40
2023-01-13T23:25:34.381Z,40.80
2023-01-13T23:26:36.988Z,38.90
2023-01-13T23:27:39.218Z,38.30
2023-01-13T23:28:42.408Z,52.50
2023-01-13T23:29:45.076Z,51.00
2023-01-13T23:30:47.847Z,52.50
2023-01-13T23:31:49.831Z,41.10
2023-01-13T23:32:51.769Z,53.89
2023-01-13T23:33:53.695Z,54.22
2023-01-13T23:34:56.346Z,45.67
2023-01-13T23:36:01.216Z,47.80
2023-01-13T23:37:03.574Z,42.40
2023-01-13T23:38:05.858Z,58.60
2023-01-13T23:39:08.537Z,51.00
2023-01-13T23:40:13.008Z,53.70
2023-01-13T23:41:18.636Z,51.10
2023-01-13T23:42:20.734Z,50.50
2023-01-13T23:43:25.527Z,52.80
2023-01-13T23:44:28.769Z,46.80
2023-01-13T23:45:31.988Z,45.70
2023-01-13T23:46:35.164Z,49.10
2023-01-13T23:47:37.299Z,45.00
2023-01-13T23:48:39.554Z,49.67
2023-01-13T23:49:41.485Z,33.00
2023-01-13T23:50:44.720Z,34.20
2023-01-13T23:51:51.840Z,41.70
2023-01-13T23:52:53.976Z,46.70
2023-01-13T23:53:56.243Z,46.44
2023-01-13T23:54:58.704Z,46.10
2023-01-13T23:56:02.227Z,45.00
2023-01-13T23:57:04.462Z,51.60
2023-01-13T23:58:06.303Z,47.78
2023-01-13T23:59:08.838Z,44.44
